sensor_id;sensor_type;location;lat;lon;timestamp;P1;durP1;ratioP1;P2;durP2;ratioP2
20449;SDS011;10384;51.940;8.432;2023-02-17T00:00:50;32.97;;;13.70;;
20449;SDS011;10384;51.940;8.432;2023-02-17T00:03:16;30.87;;;14.23;;
20449;SDS011;10384;51.940;8.432;2023-02-17T00:05:42;31.80;;;14.93;;
20449;SDS011;10384;51.940;8.432;2023-02-17T00:08:08;33.40;;;14.43;;
20449;SDS011;10384;51.940;8.432;2023-02-17T00:10:34;30.47;;;13.20;;
20449;SDS011;10384;51.940;8.432;2023-02-17T00:13:00;31.77;;;14.27;;
20449;SDS011;10384;51.940;8.432;2023-02-17T00:15:26;32.70;;;14.30;;
20449;SDS011;10384;51.940;8.432;2023-02-17T00:17:51;31.20;;;14.17;;
20449;SDS011;10384;51.940;8.432;2023-02-17T00:20:17;30.03;;;14.13;;
20449;SDS011;10384;51.940;8.432;2023-02-17T00:22:43;34.07;;;14.37;;
20449;SDS011;10384;51.940;8.432;2023-02-17T00:25:09;33.80;;;14.97;;
20449;SDS011;10384;51.940;8.432;2023-02-17T00:27:35;31.80;;;14.17;;
20449;SDS011;10384;51.940;8.432;2023-02-17T00:30:01;29.10;;;13.60;;
20449;SDS011;10384;51.940;8.432;2023-02-17T00:32:27;31.90;;;13.77;;
20449;SDS011;10384;51.940;8.432;2023-02-17T00:34:53;33.23;;;14.23;;
20449;SDS011;10384;51.940;8.432;2023-02-17T00:37:22;33.07;;;14.70;;
20449;SDS011;10384;51.940;8.432;2023-02-17T00:39:47;32.77;;;14.60;;
20449;SDS011;10384;51.940;8.432;2023-02-17T00:42:13;33.10;;;14.43;;
20449;SDS011;10384;51.940;8.432;2023-02-17T00:44:39;37.67;;;16.13;;
20449;SDS011;10384;51.940;8.432;2023-02-17T00:47:05;40.07;;;17.07;;
20449;SDS011;10384;51.940;8.432;2023-02-17T00:49:31;36.87;;;15.33;;
20449;SDS011;10384;51.940;8.432;2023-02-17T00:51:58;38.87;;;15.43;;
20449;SDS011;10384;51.940;8.432;2023-02-17T00:54:25;38.90;;;16.03;;
20449;SDS011;10384;51.940;8.432;2023-02-17T00:56:51;41.37;;;16.30;;
20449;SDS011;10384;51.940;8.432;2023-02-17T00:59:17;37.87;;;15.53;;
20449;SDS011;10384;51.940;8.432;2023-02-17T01:01:43;38.83;;;16.83;;
20449;SDS011;10384;51.940;8.432;2023-02-17T01:04:09;38.90;;;15.63;;
20449;SDS011;10384;51.940;8.432;2023-02-17T01:06:36;42.37;;;16.50;;
20449;SDS011;10384;51.940;8.432;2023-02-17T01:09:03;42.10;;;16.50;;
20449;SDS011;10384;51.940;8.432;2023-02-17T01:11:30;44.63;;;17.03;;
20449;SDS011;10384;51.940;8.432;2023-02-17T01:13:56;38.33;;;16.27;;
20449;SDS011;10384;51.940;8.432;2023-02-17T01:16:23;35.77;;;14.87;;
20449;SDS011;10384;51.940;8.432;2023-02-17T01:18:50;30.90;;;14.27;;
20449;SDS011;10384;51.940;8.432;2023-02-17T01:21:17;32.77;;;14.40;;
20449;SDS011;10384;51.940;8.432;2023-02-17T01:23:43;33.53;;;15.00;;
20449;SDS011;10384;51.940;8.432;2023-02-17T01:26:13;32.67;;;14.83;;
20449;SDS011;10384;51.940;8.432;2023-02-17T01:28:39;35.70;;;14.43;;
20449;SDS011;10384;51.940;8.432;2023-02-17T01:31:08;30.40;;;13.80;;
20449;SDS011;10384;51.940;8.432;2023-02-17T01:33:34;28.50;;;13.47;;
20449;SDS011;10384;51.940;8.432;2023-02-17T01:36:04;31.73;;;14.07;;
20449;SDS011;10384;51.940;8.432;2023-02-17T01:38:30;31.80;;;14.30;;
20449;SDS011;10384;51.940;8.432;2023-02-17T01:40:57;33.77;;;14.63;;
20449;SDS011;10384;51.940;8.432;2023-02-17T01:43:23;33.70;;;14.63;;
20449;SDS011;10384;51.940;8.432;2023-02-17T01:45:53;33.50;;;14.17;;
20449;SDS011;10384;51.940;8.432;2023-02-17T01:48:20;35.17;;;14.50;;
20449;SDS011;10384;51.940;8.432;2023-02-17T01:50:52;33.80;;;14.87;;
20449;SDS011;10384;51.940;8.432;2023-02-17T01:53:19;38.17;;;14.73;;
20449;SDS011;10384;51.940;8.432;2023-02-17T01:55:46;34.97;;;15.10;;
20449;SDS011;10384;51.940;8.432;2023-02-17T01:58:14;33.30;;;14.50;;
20449;SDS011;10384;51.940;8.432;2023-02-17T02:00:40;30.23;;;14.20;;
20449;SDS011;10384;51.940;8.432;2023-02-17T02:03:07;35.00;;;14.53;;
20449;SDS011;10384;51.940;8.432;2023-02-17T02:05:34;34.60;;;14.83;;
20449;SDS011;10384;51.940;8.432;2023-02-17T02:08:00;35.07;;;15.37;;
20449;SDS011;10384;51.940;8.432;2023-02-17T02:10:26;32.20;;;14.43;;
20449;SDS011;10384;51.940;8.432;2023-02-17T02:12:52;34.57;;;14.57;;
20449;SDS011;10384;51.940;8.432;2023-02-17T02:15:19;36.23;;;14.90;;
20449;SDS011;10384;51.940;8.432;2023-02-17T02:18:08;32.80;;;14.03;;
20449;SDS011;10384;51.940;8.432;2023-02-17T02:20:47;37.47;;;15.03;;
20449;SDS011;10384;51.940;8.432;2023-02-17T02:31:25;34.40;;;14.90;;
20449;SDS011;10384;51.940;8.432;2023-02-17T02:33:55;30.93;;;13.60;;
20449;SDS011;10384;51.940;8.432;2023-02-17T02:36:24;32.23;;;14.30;;
20449;SDS011;10384;51.940;8.432;2023-02-17T02:38:52;32.33;;;13.67;;
20449;SDS011;10384;51.940;8.432;2023-02-17T02:41:23;35.97;;;14.00;;
20449;SDS011;10384;51.940;8.432;2023-02-17T02:43:50;32.17;;;13.87;;
20449;SDS011;10384;51.940;8.432;2023-02-17T02:46:16;29.97;;;14.03;;
20449;SDS011;10384;51.940;8.432;2023-02-17T02:48:43;31.47;;;13.53;;
20449;SDS011;10384;51.940;8.432;2023-02-17T02:51:17;30.73;;;13.73;;
20449;SDS011;10384;51.940;8.432;2023-02-17T03:04:15;35.27;;;14.37;;
20449;SDS011;10384;51.940;8.432;2023-02-17T03:06:54;31.03;;;13.83;;
20449;SDS011;10384;51.940;8.432;2023-02-17T03:09:23;32.10;;;13.50;;
20449;SDS011;10384;51.940;8.432;2023-02-17T03:11:49;30.80;;;13.67;;
20449;SDS011;10384;51.940;8.432;2023-02-17T03:14:17;34.40;;;13.17;;
20449;SDS011;10384;51.940;8.432;2023-02-17T03:16:43;34.60;;;14.80;;
20449;SDS011;10384;51.940;8.432;2023-02-17T03:19:09;30.83;;;13.23;;
20449;SDS011;10384;51.940;8.432;2023-02-17T03:21:37;30.53;;;12.60;;
20449;SDS011;10384;51.940;8.432;2023-02-17T03:24:04;28.47;;;12.80;;
20449;SDS011;10384;51.940;8.432;2023-02-17T03:26:30;31.07;;;13.07;;
20449;SDS011;10384;51.940;8.432;2023-02-17T03:28:56;30.00;;;12.97;;
20449;SDS011;10384;51.940;8.432;2023-02-17T03:31:22;31.93;;;13.90;;
20449;SDS011;10384;51.940;8.432;2023-02-17T03:33:49;30.43;;;13.63;;
20449;SDS011;10384;51.940;8.432;2023-02-17T03:36:15;32.10;;;12.40;;
20449;SDS011;10384;51.940;8.432;2023-02-17T03:38:41;30.07;;;12.83;;
20449;SDS011;10384;51.940;8.432;2023-02-17T03:41:07;27.93;;;12.23;;
20449;SDS011;10384;51.940;8.432;2023-02-17T03:43:33;30.90;;;13.43;;
20449;SDS011;10384;51.940;8.432;2023-02-17T03:45:59;27.70;;;12.37;;
20449;SDS011;10384;51.940;8.432;2023-02-17T03:48:25;28.63;;;13.03;;
20449;SDS011;10384;51.940;8.432;2023-02-17T03:50:51;27.07;;;12.17;;
20449;SDS011;10384;51.940;8.432;2023-02-17T03:53:17;28.63;;;13.10;;
20449;SDS011;10384;51.940;8.432;2023-02-17T03:55:43;30.20;;;12.90;;
20449;SDS011;10384;51.940;8.432;2023-02-17T03:58:09;30.27;;;13.10;;
20449;SDS011;10384;51.940;8.432;2023-02-17T04:00:35;30.40;;;12.33;;
20449;SDS011;10384;51.940;8.432;2023-02-17T04:03:01;26.80;;;11.90;;
20449;SDS011;10384;51.940;8.432;2023-02-17T04:05:27;32.47;;;13.87;;
20449;SDS011;10384;51.940;8.432;2023-02-17T04:07:53;29.63;;;12.87;;
20449;SDS011;10384;51.940;8.432;2023-02-17T04:10:18;29.60;;;12.57;;
20449;SDS011;10384;51.940;8.432;2023-02-17T04:12:44;32.67;;;13.53;;
20449;SDS011;10384;51.940;8.432;2023-02-17T04:15:10;28.53;;;12.03;;
20449;SDS011;10384;51.940;8.432;2023-02-17T04:17:36;31.83;;;13.30;;
20449;SDS011;10384;51.940;8.432;2023-02-17T04:20:03;32.13;;;13.27;;
20449;SDS011;10384;51.940;8.432;2023-02-17T04:22:29;36.50;;;13.37;;
20449;SDS011;10384;51.940;8.432;2023-02-17T04:24:55;35.50;;;14.20;;
20449;SDS011;10384;51.940;8.432;2023-02-17T04:27:21;31.23;;;13.67;;
20449;SDS011;10384;51.940;8.432;2023-02-17T04:29:47;35.77;;;14.47;;
20449;SDS011;10384;51.940;8.432;2023-02-17T04:32:13;34.83;;;14.90;;
20449;SDS011;10384;51.940;8.432;2023-02-17T04:34:39;36.07;;;14.67;;
20449;SDS011;10384;51.940;8.432;2023-02-17T04:37:05;36.50;;;15.00;;
20449;SDS011;10384;51.940;8.432;2023-02-17T04:39:31;35.77;;;14.80;;
20449;SDS011;10384;51.940;8.432;2023-02-17T04:41:57;36.63;;;14.40;;
20449;SDS011;10384;51.940;8.432;2023-02-17T04:44:23;43.07;;;15.40;;
20449;SDS011;10384;51.940;8.432;2023-02-17T04:46:49;39.17;;;15.37;;
20449;SDS011;10384;51.940;8.432;2023-02-17T04:49:15;41.87;;;15.63;;
20449;SDS011;10384;51.940;8.432;2023-02-17T04:51:41;39.30;;;15.73;;
20449;SDS011;10384;51.940;8.432;2023-02-17T04:54:07;40.70;;;15.23;;
20449;SDS011;10384;51.940;8.432;2023-02-17T04:56:33;37.37;;;14.93;;
20449;SDS011;10384;51.940;8.432;2023-02-17T04:58:59;40.00;;;15.40;;
20449;SDS011;10384;51.940;8.432;2023-02-17T05:01:25;38.87;;;16.10;;
20449;SDS011;10384;51.940;8.432;2023-02-17T05:03:50;36.07;;;14.87;;
20449;SDS011;10384;51.940;8.432;2023-02-17T05:06:16;33.67;;;14.63;;
20449;SDS011;10384;51.940;8.432;2023-02-17T05:08:42;38.33;;;15.57;;
20449;SDS011;10384;51.940;8.432;2023-02-17T05:11:08;36.33;;;14.57;;
20449;SDS011;10384;51.940;8.432;2023-02-17T05:13:34;33.23;;;14.47;;
20449;SDS011;10384;51.940;8.432;2023-02-17T05:16:01;33.27;;;13.73;;
20449;SDS011;10384;51.940;8.432;2023-02-17T05:18:27;34.20;;;14.53;;
20449;SDS011;10384;51.940;8.432;2023-02-17T05:20:52;30.37;;;14.23;;
20449;SDS011;10384;51.940;8.432;2023-02-17T05:23:18;31.43;;;12.60;;
20449;SDS011;10384;51.940;8.432;2023-02-17T05:25:44;31.70;;;13.27;;
20449;SDS011;10384;51.940;8.432;2023-02-17T05:28:10;24.97;;;11.80;;
20449;SDS011;10384;51.940;8.432;2023-02-17T05:30:36;27.57;;;11.87;;
20449;SDS011;10384;51.940;8.432;2023-02-17T05:33:02;27.33;;;12.37;;
20449;SDS011;10384;51.940;8.432;2023-02-17T05:35:28;33.80;;;12.77;;
20449;SDS011;10384;51.940;8.432;2023-02-17T05:37:54;28.40;;;12.50;;
20449;SDS011;10384;51.940;8.432;2023-02-17T05:40:20;35.33;;;13.30;;
20449;SDS011;10384;51.940;8.432;2023-02-17T05:42:46;28.37;;;12.60;;
20449;SDS011;10384;51.940;8.432;2023-02-17T05:45:12;27.37;;;11.73;;
20449;SDS011;10384;51.940;8.432;2023-02-17T05:47:38;27.07;;;12.10;;
20449;SDS011;10384;51.940;8.432;2023-02-17T05:50:05;24.70;;;11.33;;
20449;SDS011;10384;51.940;8.432;2023-02-17T05:52:31;27.10;;;11.63;;
20449;SDS011;10384;51.940;8.432;2023-02-17T05:54:57;27.63;;;12.23;;
20449;SDS011;10384;51.940;8.432;2023-02-17T05:57:23;27.67;;;11.40;;
20449;SDS011;10384;51.940;8.432;2023-02-17T05:59:49;25.40;;;11.87;;
20449;SDS011;10384;51.940;8.432;2023-02-17T06:02:15;26.10;;;11.00;;
20449;SDS011;10384;51.940;8.432;2023-02-17T06:04:41;27.13;;;11.27;;
20449;SDS011;10384;51.940;8.432;2023-02-17T06:07:07;20.70;;;10.40;;
20449;SDS011;10384;51.940;8.432;2023-02-17T06:09:33;27.13;;;11.13;;
20449;SDS011;10384;51.940;8.432;2023-02-17T06:11:59;26.53;;;11.20;;
20449;SDS011;10384;51.940;8.432;2023-02-17T06:14:24;25.87;;;10.67;;
20449;SDS011;10384;51.940;8.432;2023-02-17T06:16:50;24.07;;;10.30;;
20449;SDS011;10384;51.940;8.432;2023-02-17T06:19:17;23.50;;;10.40;;
20449;SDS011;10384;51.940;8.432;2023-02-17T06:21:43;25.73;;;10.63;;
20449;SDS011;10384;51.940;8.432;2023-02-17T06:24:09;22.57;;;10.00;;
20449;SDS011;10384;51.940;8.432;2023-02-17T06:26:35;22.30;;;10.17;;
20449;SDS011;10384;51.940;8.432;2023-02-17T06:29:01;23.10;;;9.67;;
20449;SDS011;10384;51.940;8.432;2023-02-17T06:31:27;24.23;;;9.47;;
20449;SDS011;10384;51.940;8.432;2023-02-17T06:33:53;22.13;;;9.67;;
20449;SDS011;10384;51.940;8.432;2023-02-17T06:36:19;22.77;;;9.87;;
20449;SDS011;10384;51.940;8.432;2023-02-17T06:38:45;21.77;;;9.33;;
20449;SDS011;10384;51.940;8.432;2023-02-17T06:41:11;17.57;;;8.43;;
20449;SDS011;10384;51.940;8.432;2023-02-17T06:43:37;23.20;;;9.90;;
20449;SDS011;10384;51.940;8.432;2023-02-17T06:46:03;19.77;;;8.63;;
20449;SDS011;10384;51.940;8.432;2023-02-17T06:48:29;19.40;;;9.10;;
20449;SDS011;10384;51.940;8.432;2023-02-17T06:50:57;20.57;;;8.37;;
20449;SDS011;10384;51.940;8.432;2023-02-17T06:53:23;18.37;;;8.47;;
20449;SDS011;10384;51.940;8.432;2023-02-17T06:55:49;18.20;;;8.87;;
20449;SDS011;10384;51.940;8.432;2023-02-17T06:58:15;17.90;;;8.67;;
20449;SDS011;10384;51.940;8.432;2023-02-17T07:00:41;19.67;;;8.43;;
20449;SDS011;10384;51.940;8.432;2023-02-17T07:03:07;19.43;;;8.60;;
20449;SDS011;10384;51.940;8.432;2023-02-17T07:05:34;17.40;;;8.40;;
20449;SDS011;10384;51.940;8.432;2023-02-17T07:08:00;21.47;;;8.73;;
20449;SDS011;10384;51.940;8.432;2023-02-17T07:10:26;17.13;;;8.23;;
20449;SDS011;10384;51.940;8.432;2023-02-17T07:12:52;17.90;;;7.53;;
20449;SDS011;10384;51.940;8.432;2023-02-17T07:15:18;20.07;;;8.47;;
20449;SDS011;10384;51.940;8.432;2023-02-17T07:17:45;21.10;;;9.03;;
20449;SDS011;10384;51.940;8.432;2023-02-17T07:20:11;23.93;;;8.97;;
20449;SDS011;10384;51.940;8.432;2023-02-17T07:22:37;21.37;;;9.13;;
20449;SDS011;10384;51.940;8.432;2023-02-17T07:25:03;19.90;;;8.87;;
20449;SDS011;10384;51.940;8.432;2023-02-17T07:27:29;19.30;;;8.57;;
20449;SDS011;10384;51.940;8.432;2023-02-17T07:29:56;24.87;;;9.83;;
20449;SDS011;10384;51.940;8.432;2023-02-17T07:32:22;20.77;;;8.50;;
20449;SDS011;10384;51.940;8.432;2023-02-17T07:34:48;19.13;;;8.23;;
20449;SDS011;10384;51.940;8.432;2023-02-17T07:37:14;23.17;;;9.43;;
20449;SDS011;10384;51.940;8.432;2023-02-17T07:39:40;20.57;;;8.47;;
20449;SDS011;10384;51.940;8.432;2023-02-17T07:42:06;19.43;;;8.93;;
20449;SDS011;10384;51.940;8.432;2023-02-17T07:44:33;19.40;;;8.20;;
20449;SDS011;10384;51.940;8.432;2023-02-17T07:46:59;20.57;;;9.07;;
20449;SDS011;10384;51.940;8.432;2023-02-17T07:49:25;17.40;;;8.20;;
20449;SDS011;10384;51.940;8.432;2023-02-17T07:51:51;17.83;;;8.57;;
20449;SDS011;10384;51.940;8.432;2023-02-17T07:54:17;18.20;;;7.93;;
20449;SDS011;10384;51.940;8.432;2023-02-17T07:56:43;18.03;;;8.57;;
20449;SDS011;10384;51.940;8.432;2023-02-17T07:59:10;24.13;;;9.30;;
20449;SDS011;10384;51.940;8.432;2023-02-17T08:01:36;20.30;;;8.93;;
20449;SDS011;10384;51.940;8.432;2023-02-17T08:04:02;18.83;;;8.00;;
20449;SDS011;10384;51.940;8.432;2023-02-17T08:06:28;18.90;;;8.67;;
20449;SDS011;10384;51.940;8.432;2023-02-17T08:08:54;18.23;;;8.50;;
20449;SDS011;10384;51.940;8.432;2023-02-17T08:11:39;19.83;;;9.00;;
20449;SDS011;10384;51.940;8.432;2023-02-17T08:14:25;17.80;;;8.33;;
20449;SDS011;10384;51.940;8.432;2023-02-17T08:16:52;19.77;;;8.50;;
20449;SDS011;10384;51.940;8.432;2023-02-17T08:19:18;18.90;;;8.83;;
20449;SDS011;10384;51.940;8.432;2023-02-17T08:21:44;17.13;;;8.40;;
20449;SDS011;10384;51.940;8.432;2023-02-17T08:24:10;18.30;;;8.10;;
20449;SDS011;10384;51.940;8.432;2023-02-17T08:26:36;19.63;;;8.27;;
20449;SDS011;10384;51.940;8.432;2023-02-17T08:29:02;19.17;;;8.00;;
20449;SDS011;10384;51.940;8.432;2023-02-17T08:31:30;17.27;;;7.07;;
20449;SDS011;10384;51.940;8.432;2023-02-17T08:33:56;15.67;;;7.50;;
20449;SDS011;10384;51.940;8.432;2023-02-17T08:36:23;17.97;;;7.90;;
20449;SDS011;10384;51.940;8.432;2023-02-17T08:38:50;16.23;;;8.17;;
20449;SDS011;10384;51.940;8.432;2023-02-17T08:41:18;16.43;;;7.63;;
20449;SDS011;10384;51.940;8.432;2023-02-17T08:43:45;16.63;;;7.60;;
20449;SDS011;10384;51.940;8.432;2023-02-17T08:46:11;16.83;;;7.47;;
20449;SDS011;10384;51.940;8.432;2023-02-17T08:48:38;20.13;;;9.50;;
20449;SDS011;10384;51.940;8.432;2023-02-17T08:51:04;16.33;;;7.93;;
20449;SDS011;10384;51.940;8.432;2023-02-17T08:53:31;16.23;;;7.80;;
20449;SDS011;10384;51.940;8.432;2023-02-17T08:55:57;17.23;;;7.90;;
20449;SDS011;10384;51.940;8.432;2023-02-17T08:58:23;19.70;;;7.93;;
20449;SDS011;10384;51.940;8.432;2023-02-17T09:00:49;21.93;;;7.70;;
20449;SDS011;10384;51.940;8.432;2023-02-17T09:03:14;18.07;;;7.90;;
20449;SDS011;10384;51.940;8.432;2023-02-17T09:05:40;19.00;;;8.93;;
20449;SDS011;10384;51.940;8.432;2023-02-17T09:08:06;20.23;;;8.23;;
20449;SDS011;10384;51.940;8.432;2023-02-17T09:10:33;20.03;;;8.50;;
20449;SDS011;10384;51.940;8.432;2023-02-17T09:12:58;18.37;;;8.17;;
20449;SDS011;10384;51.940;8.432;2023-02-17T09:15:24;19.60;;;8.43;;
20449;SDS011;10384;51.940;8.432;2023-02-17T09:17:50;18.67;;;8.37;;
20449;SDS011;10384;51.940;8.432;2023-02-17T09:20:16;25.67;;;9.83;;
20449;SDS011;10384;51.940;8.432;2023-02-17T09:22:43;19.90;;;9.13;;
20449;SDS011;10384;51.940;8.432;2023-02-17T09:25:09;20.33;;;8.97;;
20449;SDS011;10384;51.940;8.432;2023-02-17T09:27:35;23.50;;;9.47;;
20449;SDS011;10384;51.940;8.432;2023-02-17T09:30:01;26.23;;;10.37;;
20449;SDS011;10384;51.940;8.432;2023-02-17T09:32:27;22.87;;;9.67;;
20449;SDS011;10384;51.940;8.432;2023-02-17T09:34:53;23.37;;;10.67;;
20449;SDS011;10384;51.940;8.432;2023-02-17T09:37:19;26.00;;;10.87;;
20449;SDS011;10384;51.940;8.432;2023-02-17T09:39:46;22.97;;;9.77;;
20449;SDS011;10384;51.940;8.432;2023-02-17T09:42:16;25.17;;;11.07;;
20449;SDS011;10384;51.940;8.432;2023-02-17T09:44:43;23.03;;;10.17;;
20449;SDS011;10384;51.940;8.432;2023-02-17T09:47:23;26.97;;;11.23;;
20449;SDS011;10384;51.940;8.432;2023-02-17T09:49:53;23.53;;;10.23;;
20449;SDS011;10384;51.940;8.432;2023-02-17T09:52:27;30.40;;;11.37;;
20449;SDS011;10384;51.940;8.432;2023-02-17T09:55:00;24.37;;;11.30;;
20449;SDS011;10384;51.940;8.432;2023-02-17T09:57:28;28.93;;;11.83;;
20449;SDS011;10384;51.940;8.432;2023-02-17T10:05:33;26.17;;;10.70;;
20449;SDS011;10384;51.940;8.432;2023-02-17T10:08:01;25.13;;;10.30;;
20449;SDS011;10384;51.940;8.432;2023-02-17T10:10:34;24.67;;;11.53;;
20449;SDS011;10384;51.940;8.432;2023-02-17T10:13:03;25.83;;;10.73;;
20449;SDS011;10384;51.940;8.432;2023-02-17T10:15:32;23.30;;;10.70;;
20449;SDS011;10384;51.940;8.432;2023-02-17T10:20:32;27.17;;;10.87;;
20449;SDS011;10384;51.940;8.432;2023-02-17T10:23:04;26.73;;;11.10;;
20449;SDS011;10384;51.940;8.432;2023-02-17T10:28:07;28.53;;;11.13;;
20449;SDS011;10384;51.940;8.432;2023-02-17T10:30:42;26.83;;;10.97;;
20449;SDS011;10384;51.940;8.432;2023-02-17T10:33:22;24.67;;;11.13;;
20449;SDS011;10384;51.940;8.432;2023-02-17T10:35:52;27.07;;;11.40;;
20449;SDS011;10384;51.940;8.432;2023-02-17T10:38:29;30.80;;;11.50;;
20449;SDS011;10384;51.940;8.432;2023-02-17T10:41:00;28.57;;;12.37;;
20449;SDS011;10384;51.940;8.432;2023-02-17T10:43:28;25.67;;;11.03;;
20449;SDS011;10384;51.940;8.432;2023-02-17T10:45:56;27.90;;;11.30;;
20449;SDS011;10384;51.940;8.432;2023-02-17T10:48:36;26.23;;;10.73;;
20449;SDS011;10384;51.940;8.432;2023-02-17T10:51:05;26.27;;;12.10;;
20449;SDS011;10384;51.940;8.432;2023-02-17T10:53:35;24.77;;;10.60;;
20449;SDS011;10384;51.940;8.432;2023-02-17T10:56:08;25.37;;;10.50;;
20449;SDS011;10384;51.940;8.432;2023-02-17T11:01:10;23.77;;;10.47;;
20449;SDS011;10384;51.940;8.432;2023-02-17T11:03:36;23.43;;;10.60;;
20449;SDS011;10384;51.940;8.432;2023-02-17T11:06:05;23.27;;;10.17;;
20449;SDS011;10384;51.940;8.432;2023-02-17T11:11:04;24.17;;;10.70;;
20449;SDS011;10384;51.940;8.432;2023-02-17T11:13:38;22.00;;;9.77;;
20449;SDS011;10384;51.940;8.432;2023-02-17T11:16:06;23.77;;;11.03;;
20449;SDS011;10384;51.940;8.432;2023-02-17T11:18:44;24.40;;;9.93;;
20449;SDS011;10384;51.940;8.432;2023-02-17T11:21:12;21.73;;;10.03;;
20449;SDS011;10384;51.940;8.432;2023-02-17T11:23:53;20.33;;;9.70;;
20449;SDS011;10384;51.940;8.432;2023-02-17T11:26:24;22.37;;;10.70;;
20449;SDS011;10384;51.940;8.432;2023-02-17T11:28:50;19.47;;;9.67;;
20449;SDS011;10384;51.940;8.432;2023-02-17T11:31:23;21.03;;;9.10;;
20449;SDS011;10384;51.940;8.432;2023-02-17T11:33:50;15.70;;;8.57;;
20449;SDS011;10384;51.940;8.432;2023-02-17T11:36:27;22.00;;;10.40;;
20449;SDS011;10384;51.940;8.432;2023-02-17T11:38:53;18.27;;;9.20;;
20449;SDS011;10384;51.940;8.432;2023-02-17T11:41:19;18.93;;;8.80;;
20449;SDS011;10384;51.940;8.432;2023-02-17T11:51:17;19.63;;;9.10;;
20449;SDS011;10384;51.940;8.432;2023-02-17T11:54:02;18.00;;;9.83;;
20449;SDS011;10384;51.940;8.432;2023-02-17T11:56:55;21.50;;;10.17;;
20449;SDS011;10384;51.940;8.432;2023-02-17T11:59:27;23.57;;;9.73;;
20449;SDS011;10384;51.940;8.432;2023-02-17T12:02:05;19.03;;;9.73;;
20449;SDS011;10384;51.940;8.432;2023-02-17T12:10:19;19.03;;;8.83;;
20449;SDS011;10384;51.940;8.432;2023-02-17T12:15:30;20.60;;;8.87;;
20449;SDS011;10384;51.940;8.432;2023-02-17T12:18:08;17.87;;;8.83;;
20449;SDS011;10384;51.940;8.432;2023-02-17T12:28:34;18.63;;;9.60;;
20449;SDS011;10384;51.940;8.432;2023-02-17T12:31:18;19.87;;;9.67;;
20449;SDS011;10384;51.940;8.432;2023-02-17T12:36:22;16.63;;;9.40;;
20449;SDS011;10384;51.940;8.432;2023-02-17T12:38:53;17.53;;;9.83;;
20449;SDS011;10384;51.940;8.432;2023-02-17T12:41:26;19.07;;;9.13;;
20449;SDS011;10384;51.940;8.432;2023-02-17T12:44:05;21.77;;;9.27;;
20449;SDS011;10384;51.940;8.432;2023-02-17T12:46:34;16.93;;;8.50;;
20449;SDS011;10384;51.940;8.432;2023-02-17T12:49:03;18.33;;;9.10;;
20449;SDS011;10384;51.940;8.432;2023-02-17T12:51:37;17.43;;;8.67;;
20449;SDS011;10384;51.940;8.432;2023-02-17T12:56:51;19.43;;;8.00;;
20449;SDS011;10384;51.940;8.432;2023-02-17T12:59:26;12.63;;;7.40;;
20449;SDS011;10384;51.940;8.432;2023-02-17T13:01:59;11.73;;;7.27;;
20449;SDS011;10384;51.940;8.432;2023-02-17T13:04:26;10.60;;;6.17;;
20449;SDS011;10384;51.940;8.432;2023-02-17T13:06:54;9.13;;;5.63;;
20449;SDS011;10384;51.940;8.432;2023-02-17T13:09:32;9.40;;;4.83;;
20449;SDS011;10384;51.940;8.432;2023-02-17T13:14:38;9.90;;;4.80;;
20449;SDS011;10384;51.940;8.432;2023-02-17T13:17:04;9.57;;;4.70;;
20449;SDS011;10384;51.940;8.432;2023-02-17T13:19:34;10.80;;;5.40;;
20449;SDS011;10384;51.940;8.432;2023-02-17T13:22:01;8.73;;;4.60;;
20449;SDS011;10384;51.940;8.432;2023-02-17T13:24:35;10.30;;;5.00;;
20449;SDS011;10384;51.940;8.432;2023-02-17T13:32:29;9.30;;;5.33;;
20449;SDS011;10384;51.940;8.432;2023-02-17T13:35:02;8.27;;;4.90;;
20449;SDS011;10384;51.940;8.432;2023-02-17T13:40:07;8.07;;;4.70;;
20449;SDS011;10384;51.940;8.432;2023-02-17T13:42:45;8.93;;;4.67;;
20449;SDS011;10384;51.940;8.432;2023-02-17T13:47:43;8.73;;;4.10;;
20449;SDS011;10384;51.940;8.432;2023-02-17T13:52:55;7.73;;;3.80;;
20449;SDS011;10384;51.940;8.432;2023-02-17T13:55:21;9.00;;;4.07;;
20449;SDS011;10384;51.940;8.432;2023-02-17T13:57:52;7.97;;;3.93;;
20449;SDS011;10384;51.940;8.432;2023-02-17T14:00:26;7.57;;;3.67;;
20449;SDS011;10384;51.940;8.432;2023-02-17T14:02:53;8.60;;;4.40;;
20449;SDS011;10384;51.940;8.432;2023-02-17T14:05:35;7.10;;;3.80;;
20449;SDS011;10384;51.940;8.432;2023-02-17T14:08:05;6.83;;;4.27;;
20449;SDS011;10384;51.940;8.432;2023-02-17T14:10:32;8.43;;;4.00;;
20449;SDS011;10384;51.940;8.432;2023-02-17T14:12:58;7.67;;;3.80;;
20449;SDS011;10384;51.940;8.432;2023-02-17T14:15:25;7.53;;;4.20;;
20449;SDS011;10384;51.940;8.432;2023-02-17T14:17:52;8.67;;;3.97;;
20449;SDS011;10384;51.940;8.432;2023-02-17T14:23:09;8.80;;;4.40;;
20449;SDS011;10384;51.940;8.432;2023-02-17T14:25:39;7.73;;;3.90;;
20449;SDS011;10384;51.940;8.432;2023-02-17T14:28:24;9.60;;;4.53;;
20449;SDS011;10384;51.940;8.432;2023-02-17T14:30:51;7.40;;;3.73;;
20449;SDS011;10384;51.940;8.432;2023-02-17T14:33:18;7.43;;;3.97;;
20449;SDS011;10384;51.940;8.432;2023-02-17T14:35:55;8.67;;;3.83;;
20449;SDS011;10384;51.940;8.432;2023-02-17T14:38:26;9.80;;;4.37;;
20449;SDS011;10384;51.940;8.432;2023-02-17T14:40:52;8.77;;;4.23;;
20449;SDS011;10384;51.940;8.432;2023-02-17T14:43:20;9.83;;;4.80;;
20449;SDS011;10384;51.940;8.432;2023-02-17T14:45:46;9.77;;;4.30;;
20449;SDS011;10384;51.940;8.432;2023-02-17T14:48:12;10.27;;;5.00;;
20449;SDS011;10384;51.940;8.432;2023-02-17T14:50:38;8.27;;;4.00;;
20449;SDS011;10384;51.940;8.432;2023-02-17T14:55:44;8.90;;;4.20;;
20449;SDS011;10384;51.940;8.432;2023-02-17T14:58:13;8.13;;;4.10;;
20449;SDS011;10384;51.940;8.432;2023-02-17T15:00:42;10.00;;;4.20;;
20449;SDS011;10384;51.940;8.432;2023-02-17T15:03:08;8.77;;;4.10;;
20449;SDS011;10384;51.940;8.432;2023-02-17T15:05:34;9.00;;;4.00;;
20449;SDS011;10384;51.940;8.432;2023-02-17T15:08:00;9.27;;;4.00;;
20449;SDS011;10384;51.940;8.432;2023-02-17T15:10:26;7.50;;;3.90;;
20449;SDS011;10384;51.940;8.432;2023-02-17T15:12:53;8.47;;;3.93;;
20449;SDS011;10384;51.940;8.432;2023-02-17T15:15:19;9.67;;;4.43;;
20449;SDS011;10384;51.940;8.432;2023-02-17T15:17:45;7.07;;;3.67;;
20449;SDS011;10384;51.940;8.432;2023-02-17T15:20:12;9.43;;;3.93;;
20449;SDS011;10384;51.940;8.432;2023-02-17T15:22:38;8.07;;;4.10;;
20449;SDS011;10384;51.940;8.432;2023-02-17T15:25:18;7.50;;;4.20;;
20449;SDS011;10384;51.940;8.432;2023-02-17T15:27:46;7.63;;;3.73;;
20449;SDS011;10384;51.940;8.432;2023-02-17T15:30:13;10.30;;;4.77;;
20449;SDS011;10384;51.940;8.432;2023-02-17T15:32:40;9.00;;;4.03;;
20449;SDS011;10384;51.940;8.432;2023-02-17T15:35:22;9.30;;;4.40;;
20449;SDS011;10384;51.940;8.432;2023-02-17T15:37:49;8.53;;;4.20;;
20449;SDS011;10384;51.940;8.432;2023-02-17T15:40:16;6.80;;;3.90;;
20449;SDS011;10384;51.940;8.432;2023-02-17T15:42:43;7.90;;;3.83;;
20449;SDS011;10384;51.940;8.432;2023-02-17T15:45:10;10.20;;;4.10;;
20449;SDS011;10384;51.940;8.432;2023-02-17T15:47:36;7.97;;;4.20;;
20449;SDS011;10384;51.940;8.432;2023-02-17T15:50:04;9.30;;;4.07;;
20449;SDS011;10384;51.940;8.432;2023-02-17T15:52:30;9.93;;;4.00;;
20449;SDS011;10384;51.940;8.432;2023-02-17T15:54:56;10.23;;;4.23;;
20449;SDS011;10384;51.940;8.432;2023-02-17T15:57:24;6.47;;;3.70;;